<?xml version="1.0" encoding="utf-8"?>
<gpx xmlns:xsi="http://www.w3.org/2001/XMLSchema-instance" xmlns:xsd="http://www.w3.org/2001/XMLSchema" version="1.1" creator="Shapelink.com" xmlns="http://www.topografix.com/GPX/1/1" xmlns:gpxtpx="http://www.garmin.com/xmlschemas/TrackPointExtension/v1">
  <metadata>
    <name>Löpning 10.04 km, 2019-07-31</name>
    <desc></desc>
    <author><name>Marian Moron</name></author> 
    <time>2019-07-31T08:45:25Z</time>
  </metadata>
  <trk>
    <name>Löpning 10.04 km, 2019-07-31</name>
    <trkseg>
      <trkpt lat="53.995453056529" lon="16.685874900623">
        <ele>130.2</ele>
        <time>2019-07-31T08:45:25Z</time>
      </trkpt>
      <trkpt lat="53.995352809005" lon="16.686165082001">
        <ele>130.6</ele>
        <time>2019-07-31T08:45:32Z</time>
      </trkpt>
      <trkpt lat="53.995281814312" lon="16.686476469586">
        <ele>133.2</ele>
        <time>2019-07-31T08:45:39Z</time>
      </trkpt>
      <trkpt lat="53.995211490171" lon="16.686797915451">
        <ele>134.8</ele>
        <time>2019-07-31T08:45:46Z</time>
      </trkpt>
      <trkpt lat="53.995107303154" lon="16.687096562548">
        <ele>134.4</ele>
        <time>2019-07-31T08:45:53Z</time>
      </trkpt>
      <trkpt lat="53.994941844448" lon="16.687271325163">
        <ele>133</ele>
        <time>2019-07-31T08:46:00Z</time>
      </trkpt>
      <trkpt lat="53.994755766268" lon="16.687312899387">
        <ele>133.2</ele>
        <time>2019-07-31T08:46:07Z</time>
      </trkpt>
      <trkpt lat="53.994571364468" lon="16.687342068399">
        <ele>132.2</ele>
        <time>2019-07-31T08:46:14Z</time>
      </trkpt>
      <trkpt lat="53.994390650704" lon="16.687372829972">
        <ele>129.2</ele>
        <time>2019-07-31T08:46:21Z</time>
      </trkpt>
      <trkpt lat="53.994193759873" lon="16.687436197136">
        <ele>127.2</ele>
        <time>2019-07-31T08:46:29Z</time>
      </trkpt>
      <trkpt lat="53.994004999485" lon="16.68744508195">
        <ele>126.8</ele>
        <time>2019-07-31T08:46:36Z</time>
      </trkpt>
      <trkpt lat="53.993819675676" lon="16.687442818837">
        <ele>128.4</ele>
        <time>2019-07-31T08:46:43Z</time>
      </trkpt>
      <trkpt lat="53.993637956084" lon="16.687461091379">
        <ele>129.4</ele>
        <time>2019-07-31T08:46:50Z</time>
      </trkpt>
      <trkpt lat="53.993449363334" lon="16.687485650346">
        <ele>130.6</ele>
        <time>2019-07-31T08:46:58Z</time>
      </trkpt>
      <trkpt lat="53.993261692593" lon="16.687509203485">
        <ele>130.8</ele>
        <time>2019-07-31T08:47:06Z</time>
      </trkpt>
      <trkpt lat="53.993076620241" lon="16.687490595667">
        <ele>131</ele>
        <time>2019-07-31T08:47:14Z</time>
      </trkpt>
      <trkpt lat="53.992875622279" lon="16.687478190455">
        <ele>131.8</ele>
        <time>2019-07-31T08:47:22Z</time>
      </trkpt>
      <trkpt lat="53.992696501076" lon="16.687440639543">
        <ele>132.8</ele>
        <time>2019-07-31T08:47:29Z</time>
      </trkpt>
      <trkpt lat="53.992515200579" lon="16.687373165248">
        <ele>134.6</ele>
        <time>2019-07-31T08:47:36Z</time>
      </trkpt>
      <trkpt lat="53.992322584517" lon="16.687304098392">
        <ele>136</ele>
        <time>2019-07-31T08:47:43Z</time>
      </trkpt>
      <trkpt lat="53.992172883783" lon="16.687120534782">
        <ele>137.4</ele>
        <time>2019-07-31T08:47:50Z</time>
      </trkpt>
      <trkpt lat="53.992200292596" lon="16.686778888538">
        <ele>139.2</ele>
        <time>2019-07-31T08:47:57Z</time>
      </trkpt>
      <trkpt lat="53.992229545427" lon="16.686444199271">
        <ele>139.6</ele>
        <time>2019-07-31T08:48:04Z</time>
      </trkpt>
      <trkpt lat="53.992226108848" lon="16.686067768142">
        <ele>139.6</ele>
        <time>2019-07-31T08:48:12Z</time>
      </trkpt>
      <trkpt lat="53.992203058623" lon="16.685738610929">
        <ele>139.8</ele>
        <time>2019-07-31T08:48:19Z</time>
      </trkpt>
      <trkpt lat="53.992198029483" lon="16.685431414294">
        <ele>139.4</ele>
        <time>2019-07-31T08:48:27Z</time>
      </trkpt>
      <trkpt lat="53.992147067531" lon="16.685135449405">
        <ele>137.4</ele>
        <time>2019-07-31T08:48:34Z</time>
      </trkpt>
      <trkpt lat="53.992136506337" lon="16.684825486743">
        <ele>136.8</ele>
        <time>2019-07-31T08:48:41Z</time>
      </trkpt>
      <trkpt lat="53.992147486626" lon="16.684472357296">
        <ele>136.8</ele>
        <time>2019-07-31T08:48:48Z</time>
      </trkpt>
      <trkpt lat="53.992142373667" lon="16.684125514274">
        <ele>137.6</ele>
        <time>2019-07-31T08:48:57Z</time>
      </trkpt>
      <trkpt lat="53.992146816074" lon="16.683781856374">
        <ele>138.8</ele>
        <time>2019-07-31T08:49:04Z</time>
      </trkpt>
      <trkpt lat="53.99215301868" lon="16.683462673622">
        <ele>138.4</ele>
        <time>2019-07-31T08:49:12Z</time>
      </trkpt>
      <trkpt lat="53.992159975657" lon="16.683138713187">
        <ele>137</ele>
        <time>2019-07-31T08:49:19Z</time>
      </trkpt>
      <trkpt lat="53.992224516287" lon="16.682824308118">
        <ele>137</ele>
        <time>2019-07-31T08:49:25Z</time>
      </trkpt>
      <trkpt lat="53.992341192335" lon="16.682555752042">
        <ele>137.2</ele>
        <time>2019-07-31T08:49:32Z</time>
      </trkpt>
      <trkpt lat="53.9924950002" lon="16.682349222026">
        <ele>138.4</ele>
        <time>2019-07-31T08:49:40Z</time>
      </trkpt>
      <trkpt lat="53.992552332396" lon="16.682252075805">
        <ele>138.8</ele>
        <time>2019-07-31T08:49:44Z</time>
      </trkpt>
      <trkpt lat="53.992425095154" lon="16.682106985116">
        <ele>138</ele>
        <time>2019-07-31T08:49:50Z</time>
      </trkpt>
      <trkpt lat="53.992221414984" lon="16.682157863249">
        <ele>136.6</ele>
        <time>2019-07-31T08:49:58Z</time>
      </trkpt>
      <trkpt lat="53.991999126996" lon="16.682200946215">
        <ele>135.2</ele>
        <time>2019-07-31T08:50:06Z</time>
      </trkpt>
      <trkpt lat="53.991818245594" lon="16.682207484097">
        <ele>134.6</ele>
        <time>2019-07-31T08:50:13Z</time>
      </trkpt>
      <trkpt lat="53.991636358364" lon="16.682204215156">
        <ele>133.6</ele>
        <time>2019-07-31T08:50:20Z</time>
      </trkpt>
      <trkpt lat="53.991434773669" lon="16.682183847139">
        <ele>134</ele>
        <time>2019-07-31T08:50:29Z</time>
      </trkpt>
      <trkpt lat="53.991246180919" lon="16.682147050598">
        <ele>134.8</ele>
        <time>2019-07-31T08:50:37Z</time>
      </trkpt>
      <trkpt lat="53.991068317001" lon="16.682099776682">
        <ele>134.4</ele>
        <time>2019-07-31T08:50:44Z</time>
      </trkpt>
      <trkpt lat="53.990880813898" lon="16.682035738966">
        <ele>133.8</ele>
        <time>2019-07-31T08:50:52Z</time>
      </trkpt>
      <trkpt lat="53.990698256116" lon="16.681959715133">
        <ele>133.6</ele>
        <time>2019-07-31T08:50:59Z</time>
      </trkpt>
      <trkpt lat="53.990390472748" lon="16.68182250343">
        <ele>133.8</ele>
        <time>2019-07-31T08:51:11Z</time>
      </trkpt>
      <trkpt lat="53.990214536667" lon="16.681731392177">
        <ele>134.4</ele>
        <time>2019-07-31T08:51:18Z</time>
      </trkpt>
      <trkpt lat="53.990039187319" lon="16.68161127955">
        <ele>134.2</ele>
        <time>2019-07-31T08:51:25Z</time>
      </trkpt>
      <trkpt lat="53.989864843799" lon="16.68149560933">
        <ele>134.4</ele>
        <time>2019-07-31T08:51:32Z</time>
      </trkpt>
      <trkpt lat="53.98968622551" lon="16.68135479341">
        <ele>135</ele>
        <time>2019-07-31T08:51:39Z</time>
      </trkpt>
      <trkpt lat="53.989526801772" lon="16.681211965834">
        <ele>137.2</ele>
        <time>2019-07-31T08:51:46Z</time>
      </trkpt>
      <trkpt lat="53.989359499048" lon="16.68106561786">
        <ele>137.2</ele>
        <time>2019-07-31T08:51:53Z</time>
      </trkpt>
      <trkpt lat="53.989207451382" lon="16.6808946271">
        <ele>136.2</ele>
        <time>2019-07-31T08:52:00Z</time>
      </trkpt>
      <trkpt lat="53.989052889146" lon="16.680711314947">
        <ele>135.2</ele>
        <time>2019-07-31T08:52:07Z</time>
      </trkpt>
      <trkpt lat="53.988909726294" lon="16.680509143519">
        <ele>135.8</ele>
        <time>2019-07-31T08:52:14Z</time>
      </trkpt>
      <trkpt lat="53.988780477396" lon="16.680289034825">
        <ele>134.8</ele>
        <time>2019-07-31T08:52:21Z</time>
      </trkpt>
      <trkpt lat="53.988638655648" lon="16.680066746837">
        <ele>135.2</ele>
        <time>2019-07-31T08:52:28Z</time>
      </trkpt>
      <trkpt lat="53.988513262424" lon="16.6798468896">
        <ele>136.2</ele>
        <time>2019-07-31T08:52:35Z</time>
      </trkpt>
      <trkpt lat="53.988397759842" lon="16.67960884364">
        <ele>137.2</ele>
        <time>2019-07-31T08:52:42Z</time>
      </trkpt>
      <trkpt lat="53.988279239776" lon="16.679319248995">
        <ele>137.8</ele>
        <time>2019-07-31T08:52:50Z</time>
      </trkpt>
      <trkpt lat="53.988156193484" lon="16.679070558022">
        <ele>137.8</ele>
        <time>2019-07-31T08:52:57Z</time>
      </trkpt>
      <trkpt lat="53.988042032006" lon="16.678810132389">
        <ele>139.8</ele>
        <time>2019-07-31T08:53:04Z</time>
      </trkpt>
      <trkpt lat="53.987921081189" lon="16.678541241037">
        <ele>141</ele>
        <time>2019-07-31T08:53:12Z</time>
      </trkpt>
      <trkpt lat="53.987841620777" lon="16.678262794319">
        <ele>140.8</ele>
        <time>2019-07-31T08:53:19Z</time>
      </trkpt>
      <trkpt lat="53.987754868112" lon="16.677989209103">
        <ele>140.2</ele>
        <time>2019-07-31T08:53:26Z</time>
      </trkpt>
      <trkpt lat="53.98767289313" lon="16.677709421281">
        <ele>141.4</ele>
        <time>2019-07-31T08:53:33Z</time>
      </trkpt>
      <trkpt lat="53.987586391922" lon="16.677402559922">
        <ele>140.4</ele>
        <time>2019-07-31T08:53:41Z</time>
      </trkpt>
      <trkpt lat="53.98752788626" lon="16.677107433223">
        <ele>140.6</ele>
        <time>2019-07-31T08:53:49Z</time>
      </trkpt>
      <trkpt lat="53.987481031439" lon="16.676778192191">
        <ele>139.6</ele>
        <time>2019-07-31T08:53:57Z</time>
      </trkpt>
      <trkpt lat="53.98747508029" lon="16.676466972244">
        <ele>139.4</ele>
        <time>2019-07-31T08:54:05Z</time>
      </trkpt>
      <trkpt lat="53.987434763351" lon="16.676126331828">
        <ele>141.4</ele>
        <time>2019-07-31T08:54:13Z</time>
      </trkpt>
      <trkpt lat="53.987382795571" lon="16.675808154904">
        <ele>143.4</ele>
        <time>2019-07-31T08:54:20Z</time>
      </trkpt>
      <trkpt lat="53.987337198035" lon="16.675483104822">
        <ele>143.2</ele>
        <time>2019-07-31T08:54:27Z</time>
      </trkpt>
      <trkpt lat="53.987291432861" lon="16.675181104965">
        <ele>142.8</ele>
        <time>2019-07-31T08:54:34Z</time>
      </trkpt>
      <trkpt lat="53.987243991307" lon="16.674871226122">
        <ele>141.8</ele>
        <time>2019-07-31T08:54:41Z</time>
      </trkpt>
      <trkpt lat="53.987179869772" lon="16.674562604564">
        <ele>142.6</ele>
        <time>2019-07-31T08:54:48Z</time>
      </trkpt>
      <trkpt lat="53.987119100997" lon="16.674265130933">
        <ele>144</ele>
        <time>2019-07-31T08:54:55Z</time>
      </trkpt>
      <trkpt lat="53.987089177614" lon="16.673954665357">
        <ele>143.8</ele>
        <time>2019-07-31T08:55:02Z</time>
      </trkpt>
      <trkpt lat="53.987038802395" lon="16.673636404614">
        <ele>142.8</ele>
        <time>2019-07-31T08:55:10Z</time>
      </trkpt>
      <trkpt lat="53.986978536534" lon="16.673322083364">
        <ele>142.2</ele>
        <time>2019-07-31T08:55:18Z</time>
      </trkpt>
      <trkpt lat="53.986944841296" lon="16.673007091562">
        <ele>140</ele>
        <time>2019-07-31T08:55:25Z</time>
      </trkpt>
      <trkpt lat="53.986902177425" lon="16.672694446692">
        <ele>141.2</ele>
        <time>2019-07-31T08:55:32Z</time>
      </trkpt>
      <trkpt lat="53.986877702277" lon="16.67235933833">
        <ele>143.6</ele>
        <time>2019-07-31T08:55:39Z</time>
      </trkpt>
      <trkpt lat="53.986851550749" lon="16.672052644609">
        <ele>143.8</ele>
        <time>2019-07-31T08:55:46Z</time>
      </trkpt>
      <trkpt lat="53.986823387565" lon="16.671704628121">
        <ele>143.8</ele>
        <time>2019-07-31T08:55:54Z</time>
      </trkpt>
      <trkpt lat="53.986782400074" lon="16.671406232481">
        <ele>143.8</ele>
        <time>2019-07-31T08:56:01Z</time>
      </trkpt>
      <trkpt lat="53.986771671242" lon="16.671129126867">
        <ele>143.8</ele>
        <time>2019-07-31T08:56:08Z</time>
      </trkpt>
      <trkpt lat="53.986783992635" lon="16.671033740845">
        <ele>143.4</ele>
        <time>2019-07-31T08:56:18Z</time>
      </trkpt>
      <trkpt lat="53.986778125305" lon="16.671003566005">
        <ele>144.2</ele>
        <time>2019-07-31T08:56:19Z</time>
      </trkpt>
      <trkpt lat="53.9867785444" lon="16.670966518007">
        <ele>144.6</ele>
        <time>2019-07-31T08:56:21Z</time>
      </trkpt>
      <trkpt lat="53.986766642102" lon="16.670639707726">
        <ele>146.2</ele>
        <time>2019-07-31T08:56:29Z</time>
      </trkpt>
      <trkpt lat="53.986749040112" lon="16.670315495834">
        <ele>146.6</ele>
        <time>2019-07-31T08:56:36Z</time>
      </trkpt>
      <trkpt lat="53.986756919098" lon="16.669999079109">
        <ele>146.4</ele>
        <time>2019-07-31T08:56:43Z</time>
      </trkpt>
      <trkpt lat="53.986753231062" lon="16.669678890529">
        <ele>147.6</ele>
        <time>2019-07-31T08:56:50Z</time>
      </trkpt>
      <trkpt lat="53.986740490574" lon="16.669351661153">
        <ele>148.6</ele>
        <time>2019-07-31T08:56:57Z</time>
      </trkpt>
      <trkpt lat="53.986715763969" lon="16.668960980794">
        <ele>149.8</ele>
        <time>2019-07-31T08:57:05Z</time>
      </trkpt>
      <trkpt lat="53.98672657662" lon="16.66861681998">
        <ele>149</ele>
        <time>2019-07-31T08:57:12Z</time>
      </trkpt>
      <trkpt lat="53.986724648783" lon="16.668292188993">
        <ele>148.6</ele>
        <time>2019-07-31T08:57:19Z</time>
      </trkpt>
      <trkpt lat="53.986733114502" lon="16.667977783924">
        <ele>146.2</ele>
        <time>2019-07-31T08:57:27Z</time>
      </trkpt>
      <trkpt lat="53.986724145869" lon="16.667716687739">
        <ele>145.8</ele>
        <time>2019-07-31T08:57:33Z</time>
      </trkpt>
      <trkpt lat="53.986752057596" lon="16.667353919107">
        <ele>144.4</ele>
        <time>2019-07-31T08:57:40Z</time>
      </trkpt>
      <trkpt lat="53.986754572166" lon="16.667014116881">
        <ele>147</ele>
        <time>2019-07-31T08:57:49Z</time>
      </trkpt>
      <trkpt lat="53.986707801164" lon="16.666675069026">
        <ele>149</ele>
        <time>2019-07-31T08:57:58Z</time>
      </trkpt>
      <trkpt lat="53.986719368186" lon="16.66634113413">
        <ele>148.8</ele>
        <time>2019-07-31T08:58:07Z</time>
      </trkpt>
      <trkpt lat="53.986724481145" lon="16.666001415723">
        <ele>150.2</ele>
        <time>2019-07-31T08:58:15Z</time>
      </trkpt>
      <trkpt lat="53.986723140041" lon="16.665671085044">
        <ele>148.6</ele>
        <time>2019-07-31T08:58:22Z</time>
      </trkpt>
      <trkpt lat="53.986703694033" lon="16.665340838184">
        <ele>149.8</ele>
        <time>2019-07-31T08:58:29Z</time>
      </trkpt>
      <trkpt lat="53.98666622694" lon="16.665013944084">
        <ele>150</ele>
        <time>2019-07-31T08:58:36Z</time>
      </trkpt>
      <trkpt lat="53.986634962453" lon="16.664694509875">
        <ele>150</ele>
        <time>2019-07-31T08:58:43Z</time>
      </trkpt>
      <trkpt lat="53.986627251105" lon="16.664386558869">
        <ele>150.6</ele>
        <time>2019-07-31T08:58:50Z</time>
      </trkpt>
      <trkpt lat="53.98661006821" lon="16.66405371362">
        <ele>153</ele>
        <time>2019-07-31T08:58:58Z</time>
      </trkpt>
      <trkpt lat="53.986593472048" lon="16.663904851076">
        <ele>155</ele>
        <time>2019-07-31T08:59:04Z</time>
      </trkpt>
      <trkpt lat="53.986596573351" lon="16.663536634209">
        <ele>157.2</ele>
        <time>2019-07-31T08:59:13Z</time>
      </trkpt>
      <trkpt lat="53.986577211162" lon="16.663183085667">
        <ele>154.6</ele>
        <time>2019-07-31T08:59:22Z</time>
      </trkpt>
      <trkpt lat="53.986571176194" lon="16.662873290643">
        <ele>153.2</ele>
        <time>2019-07-31T08:59:27Z</time>
      </trkpt>
      <trkpt lat="53.986571679108" lon="16.66256676456">
        <ele>152.8</ele>
        <time>2019-07-31T08:59:34Z</time>
      </trkpt>
      <trkpt lat="53.986567907253" lon="16.662250347835">
        <ele>154.6</ele>
        <time>2019-07-31T08:59:41Z</time>
      </trkpt>
      <trkpt lat="53.986567069063" lon="16.661921106803">
        <ele>155</ele>
        <time>2019-07-31T08:59:48Z</time>
      </trkpt>
      <trkpt lat="53.986565895597" lon="16.661616340919">
        <ele>154.8</ele>
        <time>2019-07-31T08:59:55Z</time>
      </trkpt>
      <trkpt lat="53.986557932792" lon="16.661301432936">
        <ele>155</ele>
        <time>2019-07-31T09:00:02Z</time>
      </trkpt>
      <trkpt lat="53.986546030494" lon="16.660974622655">
        <ele>155.6</ele>
        <time>2019-07-31T09:00:09Z</time>
      </trkpt>
      <trkpt lat="53.986536978042" lon="16.66063892756">
        <ele>155.2</ele>
        <time>2019-07-31T09:00:16Z</time>
      </trkpt>
      <trkpt lat="53.986519292233" lon="16.660318906618">
        <ele>154.6</ele>
        <time>2019-07-31T09:00:23Z</time>
      </trkpt>
      <trkpt lat="53.986510491238" lon="16.659994024174">
        <ele>155.2</ele>
        <time>2019-07-31T09:00:30Z</time>
      </trkpt>
      <trkpt lat="53.986510575057" lon="16.659655982147">
        <ele>153.8</ele>
        <time>2019-07-31T09:00:38Z</time>
      </trkpt>
      <trkpt lat="53.986503450442" lon="16.659333278997">
        <ele>152.8</ele>
        <time>2019-07-31T09:00:45Z</time>
      </trkpt>
      <trkpt lat="53.986477969466" lon="16.65901200077">
        <ele>153.6</ele>
        <time>2019-07-31T09:00:53Z</time>
      </trkpt>
      <trkpt lat="53.986465648073" lon="16.658691225457">
        <ele>152.8</ele>
        <time>2019-07-31T09:01:01Z</time>
      </trkpt>
      <trkpt lat="53.986482579511" lon="16.658385705202">
        <ele>152.2</ele>
        <time>2019-07-31T09:01:29Z</time>
      </trkpt>
      <trkpt lat="53.986478807656" lon="16.658057721455">
        <ele>152.6</ele>
        <time>2019-07-31T09:01:38Z</time>
      </trkpt>
      <trkpt lat="53.98644913573" lon="16.657717081039">
        <ele>153.2</ele>
        <time>2019-07-31T09:01:46Z</time>
      </trkpt>
      <trkpt lat="53.986432623387" lon="16.657404184712">
        <ele>155.4</ele>
        <time>2019-07-31T09:01:53Z</time>
      </trkpt>
      <trkpt lat="53.986428264799" lon="16.65707494368">
        <ele>156.2</ele>
        <time>2019-07-31T09:02:00Z</time>
      </trkpt>
      <trkpt lat="53.986415524311" lon="16.656732794522">
        <ele>157.2</ele>
        <time>2019-07-31T09:02:07Z</time>
      </trkpt>
      <trkpt lat="53.986398257597" lon="16.656415958702">
        <ele>158.8</ele>
        <time>2019-07-31T09:02:14Z</time>
      </trkpt>
      <trkpt lat="53.986381829073" lon="16.65610180509">
        <ele>159</ele>
        <time>2019-07-31T09:02:20Z</time>
      </trkpt>
      <trkpt lat="53.986353498251" lon="16.655774240438">
        <ele>159.8</ele>
        <time>2019-07-31T09:02:27Z</time>
      </trkpt>
      <trkpt lat="53.986317204624" lon="16.655434438212">
        <ele>159</ele>
        <time>2019-07-31T09:02:34Z</time>
      </trkpt>
      <trkpt lat="53.986290885458" lon="16.655093211063">
        <ele>157.6</ele>
        <time>2019-07-31T09:02:41Z</time>
      </trkpt>
      <trkpt lat="53.986246796664" lon="16.654796240346">
        <ele>156.8</ele>
        <time>2019-07-31T09:02:48Z</time>
      </trkpt>
      <trkpt lat="53.986212514693" lon="16.65447236373">
        <ele>156</ele>
        <time>2019-07-31T09:02:55Z</time>
      </trkpt>
      <trkpt lat="53.986197008178" lon="16.654353173112">
        <ele>155.8</ele>
        <time>2019-07-31T09:03:00Z</time>
      </trkpt>
      <trkpt lat="53.986153087022" lon="16.654020244044">
        <ele>155.6</ele>
        <time>2019-07-31T09:03:24Z</time>
      </trkpt>
      <trkpt lat="53.986085948003" lon="16.653514899293">
        <ele>156.4</ele>
        <time>2019-07-31T09:03:34Z</time>
      </trkpt>
      <trkpt lat="53.98604177539" lon="16.653217090386">
        <ele>155.6</ele>
        <time>2019-07-31T09:03:40Z</time>
      </trkpt>
      <trkpt lat="53.98602920254" lon="16.653163865321">
        <ele>155</ele>
        <time>2019-07-31T09:03:43Z</time>
      </trkpt>
      <trkpt lat="53.986136909955" lon="16.653425045325">
        <ele>158.2</ele>
        <time>2019-07-31T09:03:50Z</time>
      </trkpt>
      <trkpt lat="53.986147890244" lon="16.65340870062">
        <ele>160</ele>
        <time>2019-07-31T09:04:16Z</time>
      </trkpt>
      <trkpt lat="53.986239672049" lon="16.653728637743">
        <ele>161</ele>
        <time>2019-07-31T09:04:25Z</time>
      </trkpt>
      <trkpt lat="53.98629993791" lon="16.65403231398">
        <ele>163.4</ele>
        <time>2019-07-31T09:04:31Z</time>
      </trkpt>
      <trkpt lat="53.986354587898" lon="16.654358034614">
        <ele>164.8</ele>
        <time>2019-07-31T09:04:37Z</time>
      </trkpt>
      <trkpt lat="53.986398760511" lon="16.654701524876">
        <ele>165.8</ele>
        <time>2019-07-31T09:04:43Z</time>
      </trkpt>
      <trkpt lat="53.986432204292" lon="16.655030682089">
        <ele>166.6</ele>
        <time>2019-07-31T09:04:49Z</time>
      </trkpt>
      <trkpt lat="53.986455170698" lon="16.655374842903">
        <ele>165.4</ele>
        <time>2019-07-31T09:04:56Z</time>
      </trkpt>
      <trkpt lat="53.986478807656" lon="16.655708191066">
        <ele>164.2</ele>
        <time>2019-07-31T09:05:03Z</time>
      </trkpt>
      <trkpt lat="53.986461792399" lon="16.656039024659">
        <ele>160</ele>
        <time>2019-07-31T09:05:10Z</time>
      </trkpt>
      <trkpt lat="53.986474951982" lon="16.656379665075">
        <ele>158</ele>
        <time>2019-07-31T09:05:17Z</time>
      </trkpt>
      <trkpt lat="53.986505378279" lon="16.656690046832">
        <ele>157</ele>
        <time>2019-07-31T09:05:24Z</time>
      </trkpt>
      <trkpt lat="53.98652624921" lon="16.657026580117">
        <ele>157.6</ele>
        <time>2019-07-31T09:05:31Z</time>
      </trkpt>
      <trkpt lat="53.98654049844" lon="16.657336039865">
        <ele>159.4</ele>
        <time>2019-07-31T09:05:38Z</time>
      </trkpt>
      <trkpt lat="53.986553490385" lon="16.657650361115">
        <ele>160.8</ele>
        <time>2019-07-31T09:05:45Z</time>
      </trkpt>
      <trkpt lat="53.986557932792" lon="16.657983876916">
        <ele>158.6</ele>
        <time>2019-07-31T09:05:52Z</time>
      </trkpt>
      <trkpt lat="53.986558435706" lon="16.65829115737">
        <ele>157.4</ele>
        <time>2019-07-31T09:05:59Z</time>
      </trkpt>
      <trkpt lat="53.986559022439" lon="16.6586406826">
        <ele>156.8</ele>
        <time>2019-07-31T09:06:07Z</time>
      </trkpt>
      <trkpt lat="53.986567404339" lon="16.65898517869">
        <ele>155.4</ele>
        <time>2019-07-31T09:06:15Z</time>
      </trkpt>
      <trkpt lat="53.986561620828" lon="16.659298158836">
        <ele>152.2</ele>
        <time>2019-07-31T09:06:22Z</time>
      </trkpt>
      <trkpt lat="53.986554915308" lon="16.659619101787">
        <ele>149.8</ele>
        <time>2019-07-31T09:06:29Z</time>
      </trkpt>
      <trkpt lat="53.986549802349" lon="16.659928310078">
        <ele>149</ele>
        <time>2019-07-31T09:06:36Z</time>
      </trkpt>
      <trkpt lat="53.98656312957" lon="16.660277919127">
        <ele>150.2</ele>
        <time>2019-07-31T09:06:44Z</time>
      </trkpt>
      <trkpt lat="53.986572182022" lon="16.660607579254">
        <ele>150.2</ele>
        <time>2019-07-31T09:06:51Z</time>
      </trkpt>
      <trkpt lat="53.986576121515" lon="16.6609457051">
        <ele>150.4</ele>
        <time>2019-07-31T09:06:58Z</time>
      </trkpt>
      <trkpt lat="53.986585425424" lon="16.661274610856">
        <ele>150.6</ele>
        <time>2019-07-31T09:07:05Z</time>
      </trkpt>
      <trkpt lat="53.986598417369" lon="16.661593039237">
        <ele>151.8</ele>
        <time>2019-07-31T09:07:12Z</time>
      </trkpt>
      <trkpt lat="53.986601267215" lon="16.661897637483">
        <ele>151</ele>
        <time>2019-07-31T09:07:19Z</time>
      </trkpt>
      <trkpt lat="53.986614342979" lon="16.662225285954">
        <ele>149.8</ele>
        <time>2019-07-31T09:07:27Z</time>
      </trkpt>
      <trkpt lat="53.986625490906" lon="16.662547570009">
        <ele>149.8</ele>
        <time>2019-07-31T09:07:35Z</time>
      </trkpt>
      <trkpt lat="53.986653989366" lon="16.662876643403">
        <ele>152.4</ele>
        <time>2019-07-31T09:07:42Z</time>
      </trkpt>
      <trkpt lat="53.986669244424" lon="16.663195993793">
        <ele>155</ele>
        <time>2019-07-31T09:07:49Z</time>
      </trkpt>
      <trkpt lat="53.986701933834" lon="16.663516769106">
        <ele>157.6</ele>
        <time>2019-07-31T09:07:56Z</time>
      </trkpt>
      <trkpt lat="53.986729761742" lon="16.66384835707">
        <ele>159.4</ele>
        <time>2019-07-31T09:08:03Z</time>
      </trkpt>
      <trkpt lat="53.986760774772" lon="16.664160918121">
        <ele>160</ele>
        <time>2019-07-31T09:08:09Z</time>
      </trkpt>
      <trkpt lat="53.986751889958" lon="16.664477334846">
        <ele>160.4</ele>
        <time>2019-07-31T09:08:15Z</time>
      </trkpt>
      <trkpt lat="53.986735461434" lon="16.66481395195">
        <ele>159.4</ele>
        <time>2019-07-31T09:08:22Z</time>
      </trkpt>
      <trkpt lat="53.98672238567" lon="16.665161549343">
        <ele>154.4</ele>
        <time>2019-07-31T09:08:29Z</time>
      </trkpt>
      <trkpt lat="53.98673076757" lon="16.665477630792">
        <ele>150.2</ele>
        <time>2019-07-31T09:08:36Z</time>
      </trkpt>
      <trkpt lat="53.986717943263" lon="16.665812403878">
        <ele>147.6</ele>
        <time>2019-07-31T09:08:44Z</time>
      </trkpt>
      <trkpt lat="53.986719116729" lon="16.665897480163">
        <ele>147.4</ele>
        <time>2019-07-31T09:08:46Z</time>
      </trkpt>
      <trkpt lat="53.986712578847" lon="16.666026561423">
        <ele>147.8</ele>
        <time>2019-07-31T09:08:58Z</time>
      </trkpt>
      <trkpt lat="53.986728504457" lon="16.666359825767">
        <ele>149.8</ele>
        <time>2019-07-31T09:09:07Z</time>
      </trkpt>
      <trkpt lat="53.986757170555" lon="16.666690407903">
        <ele>150.6</ele>
        <time>2019-07-31T09:09:14Z</time>
      </trkpt>
      <trkpt lat="53.986778963495" lon="16.666999783832">
        <ele>147.4</ele>
        <time>2019-07-31T09:09:20Z</time>
      </trkpt>
      <trkpt lat="53.986786339567" lon="16.667333048176">
        <ele>144.8</ele>
        <time>2019-07-31T09:09:27Z</time>
      </trkpt>
      <trkpt lat="53.986786255748" lon="16.667954230785">
        <ele>147.8</ele>
        <time>2019-07-31T09:09:39Z</time>
      </trkpt>
      <trkpt lat="53.986808383964" lon="16.668273581175">
        <ele>148.2</ele>
        <time>2019-07-31T09:09:46Z</time>
      </trkpt>
      <trkpt lat="53.986815340941" lon="16.668589578805">
        <ele>147.8</ele>
        <time>2019-07-31T09:09:52Z</time>
      </trkpt>
      <trkpt lat="53.986807629593" lon="16.668938517302">
        <ele>148</ele>
        <time>2019-07-31T09:09:59Z</time>
      </trkpt>
      <trkpt lat="53.986820118624" lon="16.669271530189">
        <ele>148.4</ele>
        <time>2019-07-31T09:10:06Z</time>
      </trkpt>
      <trkpt lat="53.986838139709" lon="16.669609404578">
        <ele>148.8</ele>
        <time>2019-07-31T09:10:13Z</time>
      </trkpt>
      <trkpt lat="53.986848533265" lon="16.669930682805">
        <ele>147.6</ele>
        <time>2019-07-31T09:10:20Z</time>
      </trkpt>
      <trkpt lat="53.986841995383" lon="16.670255397611">
        <ele>147.8</ele>
        <time>2019-07-31T09:10:27Z</time>
      </trkpt>
      <trkpt lat="53.986850880197" lon="16.67056393535">
        <ele>147.8</ele>
        <time>2019-07-31T09:10:34Z</time>
      </trkpt>
      <trkpt lat="53.986844174677" lon="16.670908515259">
        <ele>146.4</ele>
        <time>2019-07-31T09:10:42Z</time>
      </trkpt>
      <trkpt lat="53.986876025897" lon="16.671218310283">
        <ele>148.4</ele>
        <time>2019-07-31T09:10:49Z</time>
      </trkpt>
      <trkpt lat="53.98690008195" lon="16.671523327624">
        <ele>150.6</ele>
        <time>2019-07-31T09:10:56Z</time>
      </trkpt>
      <trkpt lat="53.986956408318" lon="16.671831110992">
        <ele>153.6</ele>
        <time>2019-07-31T09:11:02Z</time>
      </trkpt>
      <trkpt lat="53.986994881239" lon="16.6721439235">
        <ele>156</ele>
        <time>2019-07-31T09:11:10Z</time>
      </trkpt>
      <trkpt lat="53.987033940893" lon="16.672459585854">
        <ele>158.6</ele>
        <time>2019-07-31T09:11:17Z</time>
      </trkpt>
      <trkpt lat="53.987081382447" lon="16.67277759514">
        <ele>162</ele>
        <time>2019-07-31T09:11:24Z</time>
      </trkpt>
      <trkpt lat="53.987103091568" lon="16.67310616562">
        <ele>161.4</ele>
        <time>2019-07-31T09:11:31Z</time>
      </trkpt>
      <trkpt lat="53.987139217557" lon="16.673438507955">
        <ele>160.8</ele>
        <time>2019-07-31T09:11:38Z</time>
      </trkpt>
      <trkpt lat="53.987178528668" lon="16.673744195848">
        <ele>160.4</ele>
        <time>2019-07-31T09:11:45Z</time>
      </trkpt>
      <trkpt lat="53.987217085408" lon="16.674076873459">
        <ele>157.8</ele>
        <time>2019-07-31T09:11:52Z</time>
      </trkpt>
      <trkpt lat="53.98722613786" lon="16.674430673458">
        <ele>152.2</ele>
        <time>2019-07-31T09:11:59Z</time>
      </trkpt>
      <trkpt lat="53.987231921371" lon="16.674772738797">
        <ele>146.6</ele>
        <time>2019-07-31T09:12:06Z</time>
      </trkpt>
      <trkpt lat="53.987265365152" lon="16.67510357239">
        <ele>142.8</ele>
        <time>2019-07-31T09:12:14Z</time>
      </trkpt>
      <trkpt lat="53.987313225801" lon="16.675438177838">
        <ele>141.6</ele>
        <time>2019-07-31T09:12:22Z</time>
      </trkpt>
      <trkpt lat="53.987365361219" lon="16.675773621476">
        <ele>141.6</ele>
        <time>2019-07-31T09:12:30Z</time>
      </trkpt>
      <trkpt lat="53.987405342882" lon="16.676102359594">
        <ele>141</ele>
        <time>2019-07-31T09:12:38Z</time>
      </trkpt>
      <trkpt lat="53.987436272093" lon="16.676426320029">
        <ele>136.4</ele>
        <time>2019-07-31T09:12:45Z</time>
      </trkpt>
      <trkpt lat="53.987493939565" lon="16.676726643506">
        <ele>136.6</ele>
        <time>2019-07-31T09:12:52Z</time>
      </trkpt>
      <trkpt lat="53.987584966999" lon="16.677045826258">
        <ele>139</ele>
        <time>2019-07-31T09:12:59Z</time>
      </trkpt>
      <trkpt lat="53.987700637219" lon="16.677319243836">
        <ele>145.2</ele>
        <time>2019-07-31T09:13:05Z</time>
      </trkpt>
      <trkpt lat="53.987791999929" lon="16.67762903886">
        <ele>149.8</ele>
        <time>2019-07-31T09:13:12Z</time>
      </trkpt>
      <trkpt lat="53.987813289955" lon="16.677691651653">
        <ele>149.4</ele>
        <time>2019-07-31T09:13:14Z</time>
      </trkpt>
      <trkpt lat="53.987775655224" lon="16.677764909459">
        <ele>144.6</ele>
        <time>2019-07-31T09:13:42Z</time>
      </trkpt>
      <trkpt lat="53.98786483864" lon="16.678088869894">
        <ele>145.4</ele>
        <time>2019-07-31T09:13:51Z</time>
      </trkpt>
      <trkpt lat="53.987967516915" lon="16.678394222511">
        <ele>147.4</ele>
        <time>2019-07-31T09:13:57Z</time>
      </trkpt>
      <trkpt lat="53.988080756384" lon="16.678693456341">
        <ele>149</ele>
        <time>2019-07-31T09:14:03Z</time>
      </trkpt>
      <trkpt lat="53.988186787419" lon="16.678977938027">
        <ele>148.8</ele>
        <time>2019-07-31T09:14:09Z</time>
      </trkpt>
      <trkpt lat="53.988285861477" lon="16.679279518789">
        <ele>147.8</ele>
        <time>2019-07-31T09:14:16Z</time>
      </trkpt>
      <trkpt lat="53.98839708929" lon="16.679529634685">
        <ele>146.6</ele>
        <time>2019-07-31T09:14:23Z</time>
      </trkpt>
      <trkpt lat="53.988536731744" lon="16.679793496897">
        <ele>145.2</ele>
        <time>2019-07-31T09:14:30Z</time>
      </trkpt>
      <trkpt lat="53.988662963158" lon="16.680015449609">
        <ele>144.8</ele>
        <time>2019-07-31T09:14:36Z</time>
      </trkpt>
      <trkpt lat="53.988816687204" lon="16.680252154465">
        <ele>144.2</ele>
        <time>2019-07-31T09:14:43Z</time>
      </trkpt>
      <trkpt lat="53.988971333259" lon="16.680460779956">
        <ele>142.8</ele>
        <time>2019-07-31T09:14:50Z</time>
      </trkpt>
      <trkpt lat="53.989119525251" lon="16.680663035203">
        <ele>141.8</ele>
        <time>2019-07-31T09:14:57Z</time>
      </trkpt>
      <trkpt lat="53.98927718879" lon="16.680844084243">
        <ele>143.2</ele>
        <time>2019-07-31T09:15:04Z</time>
      </trkpt>
      <trkpt lat="53.989432002483" lon="16.681037789952">
        <ele>143</ele>
        <time>2019-07-31T09:15:11Z</time>
      </trkpt>
      <trkpt lat="53.989598467017" lon="16.6812131393">
        <ele>142.4</ele>
        <time>2019-07-31T09:15:19Z</time>
      </trkpt>
      <trkpt lat="53.989883703074" lon="16.681437103668">
        <ele>141</ele>
        <time>2019-07-31T09:15:31Z</time>
      </trkpt>
      <trkpt lat="53.990049916151" lon="16.681555623734">
        <ele>139.4</ele>
        <time>2019-07-31T09:15:38Z</time>
      </trkpt>
      <trkpt lat="53.990243454222" lon="16.68169174579">
        <ele>138.6</ele>
        <time>2019-07-31T09:15:45Z</time>
      </trkpt>
      <trkpt lat="53.990427101651" lon="16.681821497602">
        <ele>139.8</ele>
        <time>2019-07-31T09:15:52Z</time>
      </trkpt>
      <trkpt lat="53.990615359125" lon="16.681925936076">
        <ele>141.2</ele>
        <time>2019-07-31T09:16:00Z</time>
      </trkpt>
      <trkpt lat="53.990801772581" lon="16.681991063439">
        <ele>142</ele>
        <time>2019-07-31T09:16:07Z</time>
      </trkpt>
      <trkpt lat="53.990984665639" lon="16.682037247708">
        <ele>144.4</ele>
        <time>2019-07-31T09:16:13Z</time>
      </trkpt>
      <trkpt lat="53.991189770732" lon="16.682079408665">
        <ele>143.8</ele>
        <time>2019-07-31T09:16:20Z</time>
      </trkpt>
      <trkpt lat="53.991388757038" lon="16.682103380899">
        <ele>142.6</ele>
        <time>2019-07-31T09:16:27Z</time>
      </trkpt>
      <trkpt lat="53.991586905154" lon="16.682124670925">
        <ele>141.4</ele>
        <time>2019-07-31T09:16:34Z</time>
      </trkpt>
      <trkpt lat="53.991779102121" lon="16.682131627902">
        <ele>140.6</ele>
        <time>2019-07-31T09:16:41Z</time>
      </trkpt>
      <trkpt lat="53.991973143106" lon="16.682143111105">
        <ele>139.4</ele>
        <time>2019-07-31T09:16:48Z</time>
      </trkpt>
      <trkpt lat="53.992177661466" lon="16.682120144699">
        <ele>138.2</ele>
        <time>2019-07-31T09:16:56Z</time>
      </trkpt>
      <trkpt lat="53.992354938651" lon="16.682056106983">
        <ele>139.4</ele>
        <time>2019-07-31T09:17:03Z</time>
      </trkpt>
      <trkpt lat="53.992538753718" lon="16.682178650361">
        <ele>139.6</ele>
        <time>2019-07-31T09:17:11Z</time>
      </trkpt>
      <trkpt lat="53.992476392382" lon="16.68244276403">
        <ele>137.4</ele>
        <time>2019-07-31T09:17:19Z</time>
      </trkpt>
      <trkpt lat="53.992375641944" lon="16.682603025958">
        <ele>136.8</ele>
        <time>2019-07-31T09:17:26Z</time>
      </trkpt>
      <trkpt lat="53.992361476533" lon="16.682633284617">
        <ele>136</ele>
        <time>2019-07-31T09:17:49Z</time>
      </trkpt>
      <trkpt lat="53.992244129933" lon="16.682865127971">
        <ele>138</ele>
        <time>2019-07-31T09:17:58Z</time>
      </trkpt>
      <trkpt lat="53.992203058623" lon="16.683169893855">
        <ele>139.6</ele>
        <time>2019-07-31T09:18:05Z</time>
      </trkpt>
      <trkpt lat="53.992197358931" lon="16.683500392172">
        <ele>139.6</ele>
        <time>2019-07-31T09:18:12Z</time>
      </trkpt>
      <trkpt lat="53.992215715292" lon="16.683847067556">
        <ele>141</ele>
        <time>2019-07-31T09:18:19Z</time>
      </trkpt>
      <trkpt lat="53.992214960921" lon="16.684201370469">
        <ele>140.6</ele>
        <time>2019-07-31T09:18:26Z</time>
      </trkpt>
      <trkpt lat="53.992219319509" lon="16.684549722233">
        <ele>140.8</ele>
        <time>2019-07-31T09:18:33Z</time>
      </trkpt>
      <trkpt lat="53.992224767744" lon="16.684893463952">
        <ele>139.6</ele>
        <time>2019-07-31T09:18:40Z</time>
      </trkpt>
      <trkpt lat="53.992236250947" lon="16.685198648931">
        <ele>140</ele>
        <time>2019-07-31T09:18:46Z</time>
      </trkpt>
      <trkpt lat="53.992238346422" lon="16.685549682903">
        <ele>139.4</ele>
        <time>2019-07-31T09:18:53Z</time>
      </trkpt>
      <trkpt lat="53.992261564285" lon="16.685883617799">
        <ele>139.8</ele>
        <time>2019-07-31T09:19:00Z</time>
      </trkpt>
      <trkpt lat="53.992272460755" lon="16.686223420025">
        <ele>140.8</ele>
        <time>2019-07-31T09:19:07Z</time>
      </trkpt>
      <trkpt lat="53.992280088284" lon="16.686551403772">
        <ele>140.4</ele>
        <time>2019-07-31T09:19:14Z</time>
      </trkpt>
      <trkpt lat="53.992287464356" lon="16.68663455222">
        <ele>140.2</ele>
        <time>2019-07-31T09:19:15Z</time>
      </trkpt>
      <trkpt lat="53.992293750781" lon="16.686973935351">
        <ele>139.8</ele>
        <time>2019-07-31T09:19:24Z</time>
      </trkpt>
      <trkpt lat="53.992262905389" lon="16.687141824808">
        <ele>139.8</ele>
        <time>2019-07-31T09:19:28Z</time>
      </trkpt>
      <trkpt lat="53.99206081778" lon="16.687154984391">
        <ele>138.4</ele>
        <time>2019-07-31T09:19:35Z</time>
      </trkpt>
      <trkpt lat="53.991873314677" lon="16.687110895597">
        <ele>137.4</ele>
        <time>2019-07-31T09:19:42Z</time>
      </trkpt>
      <trkpt lat="53.991680782434" lon="16.687098993299">
        <ele>137.4</ele>
        <time>2019-07-31T09:19:49Z</time>
      </trkpt>
      <trkpt lat="53.991485148888" lon="16.687093125969">
        <ele>137.4</ele>
        <time>2019-07-31T09:19:56Z</time>
      </trkpt>
      <trkpt lat="53.991305105676" lon="16.687094969987">
        <ele>137.8</ele>
        <time>2019-07-31T09:20:03Z</time>
      </trkpt>
      <trkpt lat="53.991238637209" lon="16.687107207561">
        <ele>137.4</ele>
        <time>2019-07-31T09:20:06Z</time>
      </trkpt>
      <trkpt lat="53.991195554243" lon="16.68743418548">
        <ele>137.8</ele>
        <time>2019-07-31T09:20:13Z</time>
      </trkpt>
      <trkpt lat="53.991170240905" lon="16.687774742077">
        <ele>138.2</ele>
        <time>2019-07-31T09:20:20Z</time>
      </trkpt>
      <trkpt lat="53.991142580635" lon="16.68808965006">
        <ele>139</ele>
        <time>2019-07-31T09:20:26Z</time>
      </trkpt>
      <trkpt lat="53.991105448818" lon="16.68841570597">
        <ele>139.6</ele>
        <time>2019-07-31T09:20:32Z</time>
      </trkpt>
      <trkpt lat="53.991070412476" lon="16.688730613953">
        <ele>139.8</ele>
        <time>2019-07-31T09:20:38Z</time>
      </trkpt>
      <trkpt lat="53.991067897906" lon="16.689067985428">
        <ele>140</ele>
        <time>2019-07-31T09:20:45Z</time>
      </trkpt>
      <trkpt lat="53.991073346141" lon="16.689397980831">
        <ele>140.2</ele>
        <time>2019-07-31T09:20:52Z</time>
      </trkpt>
      <trkpt lat="53.991098827117" lon="16.689725042569">
        <ele>139.4</ele>
        <time>2019-07-31T09:20:59Z</time>
      </trkpt>
      <trkpt lat="53.991144089377" lon="16.69006610208">
        <ele>140</ele>
        <time>2019-07-31T09:21:06Z</time>
      </trkpt>
      <trkpt lat="53.991189183999" lon="16.690367599023">
        <ele>141.4</ele>
        <time>2019-07-31T09:21:12Z</time>
      </trkpt>
      <trkpt lat="53.991218185373" lon="16.690755010441">
        <ele>143.2</ele>
        <time>2019-07-31T09:21:20Z</time>
      </trkpt>
      <trkpt lat="53.99118993837" lon="16.691087268957">
        <ele>141.4</ele>
        <time>2019-07-31T09:21:27Z</time>
      </trkpt>
      <trkpt lat="53.991167391059" lon="16.691414414514">
        <ele>139.6</ele>
        <time>2019-07-31T09:21:34Z</time>
      </trkpt>
      <trkpt lat="53.991138641142" lon="16.691746840668">
        <ele>138</ele>
        <time>2019-07-31T09:21:42Z</time>
      </trkpt>
      <trkpt lat="53.991059767463" lon="16.692050433086">
        <ele>136.4</ele>
        <time>2019-07-31T09:21:50Z</time>
      </trkpt>
      <trkpt lat="53.991053816314" lon="16.692361233938">
        <ele>137</ele>
        <time>2019-07-31T09:21:57Z</time>
      </trkpt>
      <trkpt lat="53.991050212097" lon="16.692676309559">
        <ele>136.8</ele>
        <time>2019-07-31T09:22:04Z</time>
      </trkpt>
      <trkpt lat="53.991053732495" lon="16.692990127895">
        <ele>137.8</ele>
        <time>2019-07-31T09:22:11Z</time>
      </trkpt>
      <trkpt lat="53.991050044459" lon="16.693063888615">
        <ele>137.6</ele>
        <time>2019-07-31T09:22:12Z</time>
      </trkpt>
      <trkpt lat="53.991057923445" lon="16.693131782005">
        <ele>138.4</ele>
        <time>2019-07-31T09:22:48Z</time>
      </trkpt>
      <trkpt lat="53.991074435788" lon="16.69347082986">
        <ele>141</ele>
        <time>2019-07-31T09:22:57Z</time>
      </trkpt>
      <trkpt lat="53.991073262322" lon="16.693818427253">
        <ele>138.8</ele>
        <time>2019-07-31T09:23:04Z</time>
      </trkpt>
      <trkpt lat="53.991115004184" lon="16.69412294168">
        <ele>137.2</ele>
        <time>2019-07-31T09:23:11Z</time>
      </trkpt>
      <trkpt lat="53.991136210391" lon="16.694242048479">
        <ele>137.6</ele>
        <time>2019-07-31T09:23:14Z</time>
      </trkpt>
      <trkpt lat="53.991146017214" lon="16.694555112444">
        <ele>137.2</ele>
        <time>2019-07-31T09:23:21Z</time>
      </trkpt>
      <trkpt lat="53.991182143203" lon="16.694855687378">
        <ele>138.2</ele>
        <time>2019-07-31T09:23:28Z</time>
      </trkpt>
      <trkpt lat="53.991125565378" lon="16.694972279607">
        <ele>138.2</ele>
        <time>2019-07-31T09:23:32Z</time>
      </trkpt>
      <trkpt lat="53.991120955333" lon="16.695313087661">
        <ele>138.6</ele>
        <time>2019-07-31T09:23:40Z</time>
      </trkpt>
      <trkpt lat="53.991118776039" lon="16.695486844448">
        <ele>138.8</ele>
        <time>2019-07-31T09:23:44Z</time>
      </trkpt>
      <trkpt lat="53.991116010012" lon="16.69558223047">
        <ele>139</ele>
        <time>2019-07-31T09:24:09Z</time>
      </trkpt>
      <trkpt lat="53.991140066065" lon="16.69590996276">
        <ele>137.6</ele>
        <time>2019-07-31T09:24:19Z</time>
      </trkpt>
      <trkpt lat="53.991152471277" lon="16.696225708933">
        <ele>136.8</ele>
        <time>2019-07-31T09:24:26Z</time>
      </trkpt>
      <trkpt lat="53.991153728562" lon="16.696554698508">
        <ele>136</ele>
        <time>2019-07-31T09:24:33Z</time>
      </trkpt>
      <trkpt lat="53.991144340834" lon="16.69690657067">
        <ele>133.4</ele>
        <time>2019-07-31T09:24:40Z</time>
      </trkpt>
      <trkpt lat="53.991139814608" lon="16.697085691873">
        <ele>131.8</ele>
        <time>2019-07-31T09:24:44Z</time>
      </trkpt>
      <trkpt lat="53.991131432708" lon="16.697146628286">
        <ele>131.8</ele>
        <time>2019-07-31T09:24:53Z</time>
      </trkpt>
      <trkpt lat="53.991124056636" lon="16.697473773843">
        <ele>126.6</ele>
        <time>2019-07-31T09:25:01Z</time>
      </trkpt>
      <trkpt lat="53.991125984473" lon="16.697780970478">
        <ele>125.4</ele>
        <time>2019-07-31T09:25:07Z</time>
      </trkpt>
      <trkpt lat="53.991113495442" lon="16.698105601465">
        <ele>124.4</ele>
        <time>2019-07-31T09:25:13Z</time>
      </trkpt>
      <trkpt lat="53.991077453272" lon="16.698424784217">
        <ele>124.2</ele>
        <time>2019-07-31T09:25:19Z</time>
      </trkpt>
      <trkpt lat="53.991028586795" lon="16.698755953086">
        <ele>122.6</ele>
        <time>2019-07-31T09:25:25Z</time>
      </trkpt>
      <trkpt lat="53.990987515485" lon="16.699068849413">
        <ele>120.2</ele>
        <time>2019-07-31T09:25:31Z</time>
      </trkpt>
      <trkpt lat="53.990976116101" lon="16.699420218661">
        <ele>120</ele>
        <time>2019-07-31T09:25:38Z</time>
      </trkpt>
      <trkpt lat="53.990917191344" lon="16.699565057893">
        <ele>118.6</ele>
        <time>2019-07-31T09:25:49Z</time>
      </trkpt>
      <trkpt lat="53.990890620721" lon="16.699492889734">
        <ele>119.2</ele>
        <time>2019-07-31T09:25:55Z</time>
      </trkpt>
      <trkpt lat="53.990885926857" lon="16.699469420414">
        <ele>119.2</ele>
        <time>2019-07-31T09:25:56Z</time>
      </trkpt>
      <trkpt lat="53.991083572059" lon="16.69817223757">
        <ele>127.2</ele>
        <time>2019-07-31T09:27:43Z</time>
      </trkpt>
      <trkpt lat="53.991104862085" lon="16.697866884953">
        <ele>128.4</ele>
        <time>2019-07-31T09:27:54Z</time>
      </trkpt>
      <trkpt lat="53.9910952229" lon="16.697561616155">
        <ele>128.8</ele>
        <time>2019-07-31T09:28:02Z</time>
      </trkpt>
      <trkpt lat="53.991072005037" lon="16.697220640463">
        <ele>133.2</ele>
        <time>2019-07-31T09:28:10Z</time>
      </trkpt>
      <trkpt lat="53.991059348368" lon="16.696912438">
        <ele>134.8</ele>
        <time>2019-07-31T09:28:17Z</time>
      </trkpt>
      <trkpt lat="53.991054822142" lon="16.696586549728">
        <ele>136</ele>
        <time>2019-07-31T09:28:24Z</time>
      </trkpt>
      <trkpt lat="53.991051553201" lon="16.696268456623">
        <ele>136.6</ele>
        <time>2019-07-31T09:28:31Z</time>
      </trkpt>
      <trkpt lat="53.991047948984" lon="16.695962684911">
        <ele>137.2</ele>
        <time>2019-07-31T09:28:38Z</time>
      </trkpt>
      <trkpt lat="53.991048870993" lon="16.695643166883">
        <ele>139</ele>
        <time>2019-07-31T09:28:45Z</time>
      </trkpt>
      <trkpt lat="53.991041159645" lon="16.695295485671">
        <ele>139.8</ele>
        <time>2019-07-31T09:28:53Z</time>
      </trkpt>
      <trkpt lat="53.991034454125" lon="16.694953085056">
        <ele>140.6</ele>
        <time>2019-07-31T09:29:01Z</time>
      </trkpt>
      <trkpt lat="53.99102313856" lon="16.694877228861">
        <ele>140.6</ele>
        <time>2019-07-31T09:29:03Z</time>
      </trkpt>
      <trkpt lat="53.991018193239" lon="16.694569529312">
        <ele>139.4</ele>
        <time>2019-07-31T09:29:10Z</time>
      </trkpt>
      <trkpt lat="53.991019534343" lon="16.694229307991">
        <ele>140.6</ele>
        <time>2019-07-31T09:29:18Z</time>
      </trkpt>
      <trkpt lat="53.991017019773" lon="16.693923620098">
        <ele>141</ele>
        <time>2019-07-31T09:29:25Z</time>
      </trkpt>
      <trkpt lat="53.991019366705" lon="16.693604856441">
        <ele>140.6</ele>
        <time>2019-07-31T09:29:32Z</time>
      </trkpt>
      <trkpt lat="53.991013750832" lon="16.693277627065">
        <ele>140</ele>
        <time>2019-07-31T09:29:39Z</time>
      </trkpt>
      <trkpt lat="53.99100721295" lon="16.692950062413">
        <ele>139.6</ele>
        <time>2019-07-31T09:29:46Z</time>
      </trkpt>
      <trkpt lat="53.991007129131" lon="16.692640854122">
        <ele>139.6</ele>
        <time>2019-07-31T09:29:53Z</time>
      </trkpt>
      <trkpt lat="53.991011487719" lon="16.692324856492">
        <ele>139.8</ele>
        <time>2019-07-31T09:30:00Z</time>
      </trkpt>
      <trkpt lat="53.991030095537" lon="16.691844992717">
        <ele>140</ele>
        <time>2019-07-31T09:30:11Z</time>
      </trkpt>
      <trkpt lat="53.991055241237" lon="16.691518517712">
        <ele>139.8</ele>
        <time>2019-07-31T09:30:19Z</time>
      </trkpt>
      <trkpt lat="53.991070412476" lon="16.691211321077">
        <ele>139.8</ele>
        <time>2019-07-31T09:30:26Z</time>
      </trkpt>
      <trkpt lat="53.991089774665" lon="16.69088417552">
        <ele>141.8</ele>
        <time>2019-07-31T09:30:33Z</time>
      </trkpt>
      <trkpt lat="53.99109187014" lon="16.690564322216">
        <ele>143.2</ele>
        <time>2019-07-31T09:30:40Z</time>
      </trkpt>
      <trkpt lat="53.99110695756" lon="16.69024631293">
        <ele>141.8</ele>
        <time>2019-07-31T09:30:47Z</time>
      </trkpt>
      <trkpt lat="53.991106538465" lon="16.689933416603">
        <ele>141.2</ele>
        <time>2019-07-31T09:30:54Z</time>
      </trkpt>
      <trkpt lat="53.991057755807" lon="16.689612138376">
        <ele>140.6</ele>
        <time>2019-07-31T09:31:01Z</time>
      </trkpt>
      <trkpt lat="53.991012996461" lon="16.689275605091">
        <ele>141.8</ele>
        <time>2019-07-31T09:31:08Z</time>
      </trkpt>
      <trkpt lat="53.991015427212" lon="16.688932533924">
        <ele>143</ele>
        <time>2019-07-31T09:31:15Z</time>
      </trkpt>
      <trkpt lat="53.991040237636" lon="16.688625337289">
        <ele>143</ele>
        <time>2019-07-31T09:31:22Z</time>
      </trkpt>
      <trkpt lat="53.991073178503" lon="16.688279081">
        <ele>142.4</ele>
        <time>2019-07-31T09:31:30Z</time>
      </trkpt>
      <trkpt lat="53.991098994755" lon="16.687966519949">
        <ele>142</ele>
        <time>2019-07-31T09:31:37Z</time>
      </trkpt>
      <trkpt lat="53.991140317522" lon="16.687660329142">
        <ele>142.6</ele>
        <time>2019-07-31T09:31:44Z</time>
      </trkpt>
      <trkpt lat="53.991196057157" lon="16.687366878823">
        <ele>142.2</ele>
        <time>2019-07-31T09:31:51Z</time>
      </trkpt>
      <trkpt lat="53.991311895015" lon="16.687117517298">
        <ele>142.2</ele>
        <time>2019-07-31T09:31:58Z</time>
      </trkpt>
      <trkpt lat="53.991334861421" lon="16.687088767381">
        <ele>142.2</ele>
        <time>2019-07-31T09:31:59Z</time>
      </trkpt>
      <trkpt lat="53.991531836071" lon="16.687064962785">
        <ele>142.2</ele>
        <time>2019-07-31T09:32:06Z</time>
      </trkpt>
      <trkpt lat="53.991719087717" lon="16.687054569229">
        <ele>142.2</ele>
        <time>2019-07-31T09:32:12Z</time>
      </trkpt>
      <trkpt lat="53.991899382386" lon="16.687045432958">
        <ele>143.8</ele>
        <time>2019-07-31T09:32:18Z</time>
      </trkpt>
      <trkpt lat="53.992097195226" lon="16.687033698298">
        <ele>143</ele>
        <time>2019-07-31T09:32:25Z</time>
      </trkpt>
      <trkpt lat="53.992292409677" lon="16.687115254185">
        <ele>144</ele>
        <time>2019-07-31T09:32:32Z</time>
      </trkpt>
      <trkpt lat="53.992479242228" lon="16.687233606613">
        <ele>144</ele>
        <time>2019-07-31T09:32:39Z</time>
      </trkpt>
      <trkpt lat="53.99267437286" lon="16.68729253137">
        <ele>143.4</ele>
        <time>2019-07-31T09:32:46Z</time>
      </trkpt>
      <trkpt lat="53.992852823511" lon="16.687354138335">
        <ele>142.4</ele>
        <time>2019-07-31T09:32:52Z</time>
      </trkpt>
      <trkpt lat="53.993056168405" lon="16.687388839401">
        <ele>140.2</ele>
        <time>2019-07-31T09:32:59Z</time>
      </trkpt>
      <trkpt lat="53.993249035924" lon="16.687409291237">
        <ele>137.2</ele>
        <time>2019-07-31T09:33:06Z</time>
      </trkpt>
      <trkpt lat="53.993445675298" lon="16.687381882424">
        <ele>136.6</ele>
        <time>2019-07-31T09:33:13Z</time>
      </trkpt>
      <trkpt lat="53.993633094582" lon="16.687351623765">
        <ele>135.6</ele>
        <time>2019-07-31T09:33:20Z</time>
      </trkpt>
      <trkpt lat="53.993825626825" lon="16.687349444471">
        <ele>135.2</ele>
        <time>2019-07-31T09:33:27Z</time>
      </trkpt>
      <trkpt lat="53.994011872643" lon="16.687312731749">
        <ele>133.8</ele>
        <time>2019-07-31T09:33:34Z</time>
      </trkpt>
      <trkpt lat="53.994202225592" lon="16.687286915497">
        <ele>134.6</ele>
        <time>2019-07-31T09:33:41Z</time>
      </trkpt>
      <trkpt lat="53.994383609908" lon="16.687244922178">
        <ele>136</ele>
        <time>2019-07-31T09:33:48Z</time>
      </trkpt>
      <trkpt lat="53.994577818531" lon="16.687255986286">
        <ele>136.4</ele>
        <time>2019-07-31T09:33:56Z</time>
      </trkpt>
      <trkpt lat="53.994768255299" lon="16.68719949228">
        <ele>138.2</ele>
        <time>2019-07-31T09:34:04Z</time>
      </trkpt>
      <trkpt lat="53.994962715379" lon="16.687166970508">
        <ele>137.6</ele>
        <time>2019-07-31T09:34:12Z</time>
      </trkpt>
      <trkpt lat="53.995108979534" lon="16.68700000306">
        <ele>136</ele>
        <time>2019-07-31T09:34:19Z</time>
      </trkpt>
      <trkpt lat="53.995202521538" lon="16.686693644615">
        <ele>133.2</ele>
        <time>2019-07-31T09:34:27Z</time>
      </trkpt>
      <trkpt lat="53.995265385788" lon="16.686394326966">
        <ele>132</ele>
        <time>2019-07-31T09:34:34Z</time>
      </trkpt>
      <trkpt lat="53.995341074345" lon="16.686091740376">
        <ele>132.6</ele>
        <time>2019-07-31T09:34:41Z</time>
      </trkpt>
      <trkpt lat="53.995460181144" lon="16.685829806001">
        <ele>132.8</ele>
        <time>2019-07-31T09:34:48Z</time>
      </trkpt>
      <trkpt lat="53.995600745607" lon="16.685618749759">
        <ele>133.4</ele>
        <time>2019-07-31T09:34:55Z</time>
      </trkpt>
      <trkpt lat="53.995746925943" lon="16.685432420122">
        <ele>133.6</ele>
        <time>2019-07-31T09:35:02Z</time>
      </trkpt>
      <trkpt lat="53.995910289174" lon="16.685247850684">
        <ele>134.4</ele>
        <time>2019-07-31T09:35:10Z</time>
      </trkpt>
      <trkpt lat="53.996073400948" lon="16.685091947344">
        <ele>134.2</ele>
        <time>2019-07-31T09:35:17Z</time>
      </trkpt>
      <trkpt lat="53.99624506226" lon="16.684947443388">
        <ele>132.8</ele>
        <time>2019-07-31T09:35:24Z</time>
      </trkpt>
      <trkpt lat="53.996422926178" lon="16.684815260825">
        <ele>132.2</ele>
        <time>2019-07-31T09:35:31Z</time>
      </trkpt>
      <trkpt lat="53.996745796966" lon="16.684665057177">
        <ele>136.2</ele>
        <time>2019-07-31T09:35:42Z</time>
      </trkpt>
      <trkpt lat="53.996924666712" lon="16.684545447464">
        <ele>133.2</ele>
        <time>2019-07-31T09:35:49Z</time>
      </trkpt>
      <trkpt lat="53.99709750149" lon="16.684409325408">
        <ele>131</ele>
        <time>2019-07-31T09:35:56Z</time>
      </trkpt>
      <trkpt lat="53.99726178673" lon="16.684215116785">
        <ele>129.4</ele>
        <time>2019-07-31T09:36:04Z</time>
      </trkpt>
      <trkpt lat="53.997427413074" lon="16.684065248413">
        <ele>129.6</ele>
        <time>2019-07-31T09:36:11Z</time>
      </trkpt>
      <trkpt lat="53.997592201228" lon="16.683929880728">
        <ele>130.4</ele>
        <time>2019-07-31T09:36:18Z</time>
      </trkpt>
      <trkpt lat="53.997746931102" lon="16.683753106457">
        <ele>131.2</ele>
        <time>2019-07-31T09:36:25Z</time>
      </trkpt>
      <trkpt lat="53.997902080071" lon="16.683590329959">
        <ele>133.2</ele>
        <time>2019-07-31T09:36:32Z</time>
      </trkpt>
      <trkpt lat="53.998063347827" lon="16.683428810746">
        <ele>134.4</ele>
        <time>2019-07-31T09:36:39Z</time>
      </trkpt>
      <trkpt lat="53.998238026623" lon="16.683251365923">
        <ele>135.8</ele>
        <time>2019-07-31T09:36:46Z</time>
      </trkpt>
      <trkpt lat="53.998417902197" lon="16.683083308828">
        <ele>136.6</ele>
        <time>2019-07-31T09:36:53Z</time>
      </trkpt>
      <trkpt lat="53.998593419183" lon="16.682920699968">
        <ele>134.6</ele>
        <time>2019-07-31T09:37:00Z</time>
      </trkpt>
      <trkpt lat="53.998658965641" lon="16.682930842067">
        <ele>134.4</ele>
        <time>2019-07-31T09:37:03Z</time>
      </trkpt>
      <trkpt lat="53.998729289782" lon="16.683212809183">
        <ele>132.8</ele>
        <time>2019-07-31T09:37:10Z</time>
      </trkpt>
      <trkpt lat="53.998884690208" lon="16.683441635053">
        <ele>130.4</ele>
        <time>2019-07-31T09:37:17Z</time>
      </trkpt>
      <trkpt lat="53.998958199471" lon="16.68357180596">
        <ele>129.2</ele>
        <time>2019-07-31T09:37:21Z</time>
      </trkpt>
      <trkpt lat="53.999002623541" lon="16.683682614678">
        <ele>127.4</ele>
        <time>2019-07-31T09:37:28Z</time>
      </trkpt>
      <trkpt lat="53.999061464479" lon="16.683856287646">
        <ele>123.6</ele>
        <time>2019-07-31T09:37:35Z</time>
      </trkpt>
      <trkpt lat="53.999075462252" lon="16.683892916549">
        <ele>121.6</ele>
        <time>2019-07-31T09:37:44Z</time>
      </trkpt>
      <trkpt lat="53.999176799423" lon="16.684159544788">
        <ele>119.2</ele>
        <time>2019-07-31T09:37:52Z</time>
      </trkpt>
      <trkpt lat="53.999274532377" lon="16.684414103091">
        <ele>121.2</ele>
        <time>2019-07-31T09:38:00Z</time>
      </trkpt>
      <trkpt lat="53.999310406909" lon="16.684495742797">
        <ele>122.8</ele>
        <time>2019-07-31T09:38:04Z</time>
      </trkpt>
      <trkpt lat="53.999218038371" lon="16.684376216903">
        <ele>120.6</ele>
        <time>2019-07-31T09:38:11Z</time>
      </trkpt>
      <trkpt lat="53.999126508023" lon="16.684105481533">
        <ele>121.8</ele>
        <time>2019-07-31T09:38:18Z</time>
      </trkpt>
      <trkpt lat="53.999019554979" lon="16.683860227139">
        <ele>123.4</ele>
        <time>2019-07-31T09:38:25Z</time>
      </trkpt>
      <trkpt lat="53.998905728777" lon="16.683580858412">
        <ele>121.6</ele>
        <time>2019-07-31T09:38:33Z</time>
      </trkpt>
      <trkpt lat="53.998765080495" lon="16.683366617048">
        <ele>122.6</ele>
        <time>2019-07-31T09:38:41Z</time>
      </trkpt>
      <trkpt lat="53.998591323708" lon="16.683286402265">
        <ele>124</ele>
        <time>2019-07-31T09:38:49Z</time>
      </trkpt>
      <trkpt lat="53.998492333469" lon="16.68323233901">
        <ele>124.8</ele>
        <time>2019-07-31T09:38:54Z</time>
      </trkpt>
      <trkpt lat="53.998476659316" lon="16.683089930529">
        <ele>126.2</ele>
        <time>2019-07-31T09:38:58Z</time>
      </trkpt>
      <trkpt lat="53.998624767489" lon="16.682895805725">
        <ele>126.6</ele>
        <time>2019-07-31T09:39:05Z</time>
      </trkpt>
      <trkpt lat="53.998796428801" lon="16.682744177154">
        <ele>127.6</ele>
        <time>2019-07-31T09:39:12Z</time>
      </trkpt>
      <trkpt lat="53.99897588528" lon="16.682569917453">
        <ele>127</ele>
        <time>2019-07-31T09:39:19Z</time>
      </trkpt>
      <trkpt lat="53.999155174121" lon="16.682397753227">
        <ele>125.6</ele>
        <time>2019-07-31T09:39:26Z</time>
      </trkpt>
      <trkpt lat="53.999333708591" lon="16.682210836857">
        <ele>123.4</ele>
        <time>2019-07-31T09:39:33Z</time>
      </trkpt>
      <trkpt lat="53.999487684094" lon="16.681993913285">
        <ele>122</ele>
        <time>2019-07-31T09:39:40Z</time>
      </trkpt>
      <trkpt lat="53.999608802549" lon="16.681764835958">
        <ele>120.8</ele>
        <time>2019-07-31T09:39:47Z</time>
      </trkpt>
      <trkpt lat="53.999706703141" lon="16.681498040081">
        <ele>121</ele>
        <time>2019-07-31T09:39:54Z</time>
      </trkpt>
      <trkpt lat="53.999798820222" lon="16.681188412695">
        <ele>121.4</ele>
        <time>2019-07-31T09:40:02Z</time>
      </trkpt>
      <trkpt lat="53.999886494896" lon="16.680903260457">
        <ele>123.4</ele>
        <time>2019-07-31T09:40:10Z</time>
      </trkpt>
      <trkpt lat="53.99997333138" lon="16.680592543424">
        <ele>124</ele>
        <time>2019-07-31T09:40:18Z</time>
      </trkpt>
      <trkpt lat="54.000060754597" lon="16.680287106988">
        <ele>123.6</ele>
        <time>2019-07-31T09:40:26Z</time>
      </trkpt>
      <trkpt lat="54.000145914701" lon="16.68001871855">
        <ele>122.6</ele>
        <time>2019-07-31T09:40:33Z</time>
      </trkpt>
      <trkpt lat="54.000237193592" lon="16.679710348449">
        <ele>123.6</ele>
        <time>2019-07-31T09:40:41Z</time>
      </trkpt>
      <trkpt lat="54.000323610981" lon="16.679427962238">
        <ele>123</ele>
        <time>2019-07-31T09:40:48Z</time>
      </trkpt>
      <trkpt lat="54.000407178524" lon="16.679156723954">
        <ele>121.6</ele>
        <time>2019-07-31T09:40:55Z</time>
      </trkpt>
      <trkpt lat="54.000491500438" lon="16.678856316658">
        <ele>123.2</ele>
        <time>2019-07-31T09:41:03Z</time>
      </trkpt>
      <trkpt lat="54.000583282243" lon="16.678558423932">
        <ele>124.8</ele>
        <time>2019-07-31T09:41:11Z</time>
      </trkpt>
      <trkpt lat="54.000661988284" lon="16.678275031893">
        <ele>123</ele>
        <time>2019-07-31T09:41:18Z</time>
      </trkpt>
      <trkpt lat="54.000735665185" lon="16.677986610714">
        <ele>122.6</ele>
        <time>2019-07-31T09:41:25Z</time>
      </trkpt>
      <trkpt lat="54.000830967388" lon="16.67768687397">
        <ele>121.4</ele>
        <time>2019-07-31T09:41:32Z</time>
      </trkpt>
      <trkpt lat="54.000919731709" lon="16.677410355089">
        <ele>121.4</ele>
        <time>2019-07-31T09:41:39Z</time>
      </trkpt>
      <trkpt lat="54.000981506312" lon="16.677218493398">
        <ele>121.2</ele>
        <time>2019-07-31T09:41:44Z</time>
      </trkpt>
      <trkpt lat="54.001047807141" lon="16.676972484633">
        <ele>119.2</ele>
        <time>2019-07-31T09:41:51Z</time>
      </trkpt>
      <trkpt lat="54.001096254523" lon="16.676928898753">
        <ele>120.6</ele>
        <time>2019-07-31T09:44:30Z</time>
      </trkpt>
      <trkpt lat="54.00108560951" lon="16.676990421899">
        <ele>120.6</ele>
        <time>2019-07-31T09:44:33Z</time>
      </trkpt>
      <trkpt lat="54.001010004772" lon="16.677285464779">
        <ele>121.4</ele>
        <time>2019-07-31T09:44:40Z</time>
      </trkpt>
      <trkpt lat="54.00090958961" lon="16.677570197922">
        <ele>120.2</ele>
        <time>2019-07-31T09:44:47Z</time>
      </trkpt>
      <trkpt lat="54.000812024294" lon="16.677873874159">
        <ele>119.4</ele>
        <time>2019-07-31T09:44:54Z</time>
      </trkpt>
      <trkpt lat="54.000721248317" lon="16.678173275627">
        <ele>120.6</ele>
        <time>2019-07-31T09:45:01Z</time>
      </trkpt>
      <trkpt lat="54.000698533368" lon="16.678255921161">
        <ele>121</ele>
        <time>2019-07-31T09:45:03Z</time>
      </trkpt>
      <trkpt lat="54.000662072103" lon="16.678363460938">
        <ele>121.8</ele>
        <time>2019-07-31T09:45:27Z</time>
      </trkpt>
      <trkpt lat="54.000585545356" lon="16.678673507419">
        <ele>121.8</ele>
        <time>2019-07-31T09:45:35Z</time>
      </trkpt>
      <trkpt lat="54.000501223442" lon="16.678972741249">
        <ele>121.6</ele>
        <time>2019-07-31T09:45:41Z</time>
      </trkpt>
      <trkpt lat="54.000415979519" lon="16.679253367261">
        <ele>120.6</ele>
        <time>2019-07-31T09:45:47Z</time>
      </trkpt>
      <trkpt lat="54.000337441116" lon="16.679535837291">
        <ele>120.2</ele>
        <time>2019-07-31T09:45:53Z</time>
      </trkpt>
      <trkpt lat="54.00024574313" lon="16.679851583464">
        <ele>118.6</ele>
        <time>2019-07-31T09:46:00Z</time>
      </trkpt>
      <trkpt lat="54.000157062628" lon="16.68015785809">
        <ele>120.6</ele>
        <time>2019-07-31T09:46:07Z</time>
      </trkpt>
      <trkpt lat="54.000063688262" lon="16.680459774128">
        <ele>121.6</ele>
        <time>2019-07-31T09:46:14Z</time>
      </trkpt>
      <trkpt lat="53.999970732991" lon="16.680773424826">
        <ele>119.2</ele>
        <time>2019-07-31T09:46:21Z</time>
      </trkpt>
      <trkpt lat="53.999878532091" lon="16.68107986709">
        <ele>117.8</ele>
        <time>2019-07-31T09:46:28Z</time>
      </trkpt>
      <trkpt lat="53.999795718919" lon="16.681352697935">
        <ele>117.2</ele>
        <time>2019-07-31T09:46:34Z</time>
      </trkpt>
      <trkpt lat="53.999709552987" lon="16.681622930391">
        <ele>118.4</ele>
        <time>2019-07-31T09:46:40Z</time>
      </trkpt>
      <trkpt lat="53.999606036522" lon="16.681880673816">
        <ele>119.6</ele>
        <time>2019-07-31T09:46:46Z</time>
      </trkpt>
      <trkpt lat="53.99946622643" lon="16.68213431011">
        <ele>120</ele>
        <time>2019-07-31T09:46:53Z</time>
      </trkpt>
      <trkpt lat="53.999308814348" lon="16.68232541743">
        <ele>121</ele>
        <time>2019-07-31T09:47:00Z</time>
      </trkpt>
      <trkpt lat="53.999133800276" lon="16.682496575828">
        <ele>121.8</ele>
        <time>2019-07-31T09:47:08Z</time>
      </trkpt>
      <trkpt lat="53.998968006294" lon="16.682674188289">
        <ele>123.2</ele>
        <time>2019-07-31T09:47:16Z</time>
      </trkpt>
      <trkpt lat="53.998809420746" lon="16.682821961186">
        <ele>123.6</ele>
        <time>2019-07-31T09:47:23Z</time>
      </trkpt>
      <trkpt lat="53.998647985352" lon="16.682996639982">
        <ele>125.2</ele>
        <time>2019-07-31T09:47:30Z</time>
      </trkpt>
      <trkpt lat="53.998468864149" lon="16.683182634343">
        <ele>126.6</ele>
        <time>2019-07-31T09:47:37Z</time>
      </trkpt>
      <trkpt lat="53.998283456521" lon="16.68334549466">
        <ele>126.8</ele>
        <time>2019-07-31T09:47:44Z</time>
      </trkpt>
      <trkpt lat="53.998104502956" lon="16.683520508732">
        <ele>126.8</ele>
        <time>2019-07-31T09:47:51Z</time>
      </trkpt>
      <trkpt lat="53.997938038422" lon="16.683691499492">
        <ele>128.4</ele>
        <time>2019-07-31T09:47:58Z</time>
      </trkpt>
      <trkpt lat="53.997778530865" lon="16.683855030361">
        <ele>128.8</ele>
        <time>2019-07-31T09:48:05Z</time>
      </trkpt>
      <trkpt lat="53.997613239797" lon="16.684036498496">
        <ele>128.2</ele>
        <time>2019-07-31T09:48:12Z</time>
      </trkpt>
      <trkpt lat="53.997446775263" lon="16.684185947773">
        <ele>127.8</ele>
        <time>2019-07-31T09:48:19Z</time>
      </trkpt>
      <trkpt lat="53.997272347924" lon="16.684354172506">
        <ele>127.8</ele>
        <time>2019-07-31T09:48:27Z</time>
      </trkpt>
      <trkpt lat="53.997100770431" lon="16.684497754453">
        <ele>131</ele>
        <time>2019-07-31T09:48:35Z</time>
      </trkpt>
      <trkpt lat="53.996907148541" lon="16.684623566772">
        <ele>131.6</ele>
        <time>2019-07-31T09:48:43Z</time>
      </trkpt>
      <trkpt lat="53.99671528685" lon="16.684740075182">
        <ele>129.6</ele>
        <time>2019-07-31T09:48:51Z</time>
      </trkpt>
      <trkpt lat="53.996531974697" lon="16.684845184208">
        <ele>129.6</ele>
        <time>2019-07-31T09:48:59Z</time>
      </trkpt>
      <trkpt lat="53.996365426344" lon="16.684966302663">
        <ele>129.8</ele>
        <time>2019-07-31T09:49:07Z</time>
      </trkpt>
      <trkpt lat="53.996199967638" lon="16.685100413063">
        <ele>131.4</ele>
        <time>2019-07-31T09:49:14Z</time>
      </trkpt>
      <trkpt lat="53.996028725421" lon="16.685221196242">
        <ele>131.6</ele>
        <time>2019-07-31T09:49:21Z</time>
      </trkpt>
      <trkpt lat="53.995864607819" lon="16.685393025192">
        <ele>132.6</ele>
        <time>2019-07-31T09:49:29Z</time>
      </trkpt>
      <trkpt lat="53.995724797727" lon="16.685603327063">
        <ele>134</ele>
        <time>2019-07-31T09:49:36Z</time>
      </trkpt>
      <trkpt lat="53.995568056197" lon="16.685816981694">
        <ele>133.8</ele>
        <time>2019-07-31T09:49:43Z</time>
      </trkpt>
      <trkpt lat="53.995439645489" lon="16.6860662594">
        <ele>135</ele>
        <time>2019-07-31T09:49:50Z</time>
      </trkpt>
      <trkpt lat="53.995388934994" lon="16.686263066412">
        <ele>135.2</ele>
        <time>2019-07-31T09:49:55Z</time>
      </trkpt>
      <trkpt lat="53.995398238903" lon="16.686292738338">
        <ele>134.8</ele>
        <time>2019-07-31T09:49:57Z</time>
      </trkpt>
      <trkpt lat="53.995498989341" lon="16.685988223911">
        <ele>134</ele>
        <time>2019-07-31T09:50:05Z</time>
      </trkpt>
      <trkpt lat="53.995634357026" lon="16.685716901808">
        <ele>133.8</ele>
        <time>2019-07-31T09:50:12Z</time>
      </trkpt>
      <trkpt lat="53.995824374699" lon="16.685405430404">
        <ele>132</ele>
        <time>2019-07-31T09:50:22Z</time>
      </trkpt>
      <trkpt lat="53.995969130112" lon="16.685244581743">
        <ele>129.4</ele>
        <time>2019-07-31T09:50:29Z</time>
      </trkpt>
    </trkseg>
  </trk>
</gpx>